Time;durP1;ratioP1;P1;durP2;ratioP2;P2;SDS_P1;SDS_P2;PMS_P1;PMS_P2;Temp;Humidity;BMP_temperature;BMP_pressure;BME280_temperature;BME280_humidity;BME280_pressure;Samples;Min_cycle;Max_cycle;Signal;HPM_P1;HPM_P2
2022/01/17 00:01:41;;;;;;;19.10;15.93;;;8.80;99.90;;;;;;5051827;28;20229;-65
2022/01/17 00:04:10;;;;;;;23.73;19.58;;;8.90;99.90;;;;;;5050002;28;20230;-65
2022/01/17 00:06:37;;;;;;;25.27;19.52;;;8.80;99.90;;;;;;5051659;28;20222;-65
2022/01/17 00:09:05;;;;;;;19.27;15.65;;;8.90;99.90;;;;;;5049027;28;20218;-65
2022/01/17 00:11:34;;;;;;;18.70;16.73;;;9.00;99.90;;;;;;5051805;28;20240;-64
2022/01/17 00:14:01;;;;;;;25.00;16.35;;;9.00;99.90;;;;;;5052157;28;20223;-64
2022/01/17 00:16:39;;;;;;;25.70;15.63;;;9.00;99.90;;;;;;5051027;28;20234;-65
2022/01/17 00:19:29;;;;;;;22.80;15.57;;;9.00;99.90;;;;;;5039623;28;20282;-65
2022/01/17 00:21:54;;;;;;;17.63;14.25;;;8.90;99.90;;;;;;5051528;28;21053;-65
2022/01/17 00:24:22;;;;;;;20.30;14.63;;;8.90;99.90;;;;;;5048498;28;20220;-65
2022/01/17 00:26:52;;;;;;;21.98;13.32;;;8.90;99.90;;;;;;5049240;28;20226;-65
2022/01/17 00:29:19;;;;;;;14.93;11.60;;;9.00;99.90;;;;;;5052174;28;20557;-65
2022/01/17 00:31:45;;;;;;;18.63;15.40;;;8.90;99.90;;;;;;5043660;28;20239;-65
2022/01/17 00:34:12;;;;;;;16.58;12.20;;;9.00;99.90;;;;;;5053953;28;20233;-65
2022/01/17 00:36:39;;;;;;;19.17;13.57;;;9.00;99.90;;;;;;5055256;28;20231;-64
2022/01/17 00:39:06;;;;;;;11.32;10.07;;;9.00;99.90;;;;;;5055613;28;20246;-62
2022/01/17 00:41:35;;;;;;;18.35;10.93;;;9.00;99.90;;;;;;5055111;28;20245;-63
2022/01/17 00:44:02;;;;;;;12.27;10.70;;;9.00;99.90;;;;;;5055591;28;20280;-63
2022/01/17 00:46:29;;;;;;;13.45;9.75;;;9.00;99.90;;;;;;5055499;28;20733;-62
2022/01/17 00:48:56;;;;;;;13.50;11.75;;;9.00;99.90;;;;;;5055077;28;20224;-63
2022/01/17 00:51:22;;;;;;;16.83;11.45;;;9.00;99.90;;;;;;5055451;28;20233;-63
2022/01/17 00:53:49;;;;;;;17.90;11.73;;;9.00;99.90;;;;;;5054954;28;20257;-63
2022/01/17 00:56:16;;;;;;;14.32;10.00;;;9.00;99.90;;;;;;5055297;28;20570;-63
2022/01/17 00:58:45;;;;;;;18.80;10.50;;;9.00;99.90;;;;;;5043040;28;20223;-63
2022/01/17 01:01:11;;;;;;;14.60;9.85;;;9.00;99.90;;;;;;5041643;28;20576;-63
2022/01/17 01:03:38;;;;;;;12.68;10.20;;;9.00;99.90;;;;;;5052445;28;20230;-63
2022/01/17 01:06:05;;;;;;;12.70;8.85;;;9.00;99.90;;;;;;5054555;28;20227;-63
2022/01/17 01:08:32;;;;;;;15.48;9.82;;;9.10;99.90;;;;;;5051973;28;20251;-63
2022/01/17 01:10:59;;;;;;;11.82;9.07;;;9.10;99.90;;;;;;5054144;28;20737;-62
2022/01/17 01:13:29;;;;;;;11.13;9.15;;;9.10;99.90;;;;;;5054654;28;20234;-63
2022/01/17 01:22:00;;;;;;;12.07;9.70;;;9.10;99.90;;;;;;5054578;28;20231;-63
2022/01/17 01:29:59;;;;;;;14.48;9.73;;;9.10;99.90;;;;;;5054997;28;20746;-62
2022/01/17 01:32:34;;;;;;;14.35;10.00;;;9.10;99.90;;;;;;5038438;28;20712;-62
2022/01/17 01:35:01;;;;;;;14.90;8.80;;;9.10;99.90;;;;;;5054699;28;20226;-62
2022/01/17 01:37:29;;;;;;;11.00;8.55;;;9.10;99.90;;;;;;5054259;28;21012;-63
2022/01/17 01:39:56;;;;;;;10.30;8.32;;;9.10;99.90;;;;;;5054454;28;20223;-63
2022/01/17 01:42:24;;;;;;;13.45;9.57;;;9.10;99.90;;;;;;5054241;28;20256;-62
2022/01/17 01:44:53;;;;;;;19.25;15.73;;;9.00;99.90;;;;;;5052740;28;20564;-63
2022/01/17 01:47:23;;;;;;;11.32;7.13;;;9.10;99.90;;;;;;5049354;28;20223;-62
2022/01/17 01:49:52;;;;;;;10.90;5.47;;;9.00;99.90;;;;;;5053983;28;20227;-62
2022/01/17 01:52:19;;;;;;;8.25;6.05;;;8.90;99.90;;;;;;5053767;28;20222;-63
2022/01/17 01:54:46;;;;;;;10.63;5.22;;;8.90;99.90;;;;;;5041394;28;20238;-63
2022/01/17 01:57:13;;;;;;;11.68;6.03;;;8.90;99.90;;;;;;5053784;28;20591;-63
2022/01/17 01:59:40;;;;;;;4.60;3.45;;;8.90;99.90;;;;;;5041871;28;20237;-62
2022/01/17 02:02:07;;;;;;;8.40;5.55;;;8.90;99.90;;;;;;5053703;28;20215;-63
2022/01/17 02:04:35;;;;;;;124.40;41.92;;;8.80;99.90;;;;;;5051857;28;20223;-63
2022/01/17 02:07:04;;;;;;;11.63;6.65;;;8.90;99.90;;;;;;5053874;28;20699;-62
2022/01/17 02:09:31;;;;;;;8.07;3.80;;;8.80;99.90;;;;;;5051129;28;20222;-62
2022/01/17 02:11:57;;;;;;;10.70;4.25;;;8.80;99.90;;;;;;5053534;28;20229;-63
2022/01/17 02:14:24;;;;;;;14.73;9.27;;;8.80;99.90;;;;;;5054049;28;20575;-62
2022/01/17 02:16:51;;;;;;;17.77;6.80;;;8.70;99.90;;;;;;5053084;28;20234;-63
2022/01/17 02:19:21;;;;;;;18.38;8.52;;;8.60;99.90;;;;;;5053819;28;20359;-63
2022/01/17 02:21:50;;;;;;;46.60;24.48;;;8.60;99.90;;;;;;5053216;28;20252;-62
2022/01/17 02:24:20;;;;;;;13.30;6.10;;;8.60;99.90;;;;;;5053859;28;20227;-63
2022/01/17 02:26:48;;;;;;;8.85;2.80;;;8.60;99.90;;;;;;5052398;28;20561;-63
2022/01/17 02:29:15;;;;;;;20.02;12.35;;;8.40;99.90;;;;;;5053101;28;20218;-63
2022/01/17 02:31:45;;;;;;;12.23;5.85;;;8.50;99.90;;;;;;5052646;28;20237;-63
2022/01/17 02:34:12;;;;;;;17.60;9.85;;;8.50;99.90;;;;;;5053326;28;20233;-62
2022/01/17 02:36:40;;;;;;;12.90;5.05;;;8.50;99.90;;;;;;5050619;28;20727;-62
2022/01/17 02:39:08;;;;;;;10.90;7.10;;;8.60;99.90;;;;;;5053012;28;20217;-63
2022/01/17 02:41:39;;;;;;;19.58;10.07;;;8.60;99.90;;;;;;5053231;28;20569;-63
2022/01/17 02:44:06;;;;;;;17.67;7.30;;;8.60;99.90;;;;;;5052649;28;20430;-62
2022/01/17 02:46:33;;;;;;;18.35;7.95;;;8.60;99.90;;;;;;5053312;28;20231;-63
2022/01/17 02:49:02;;;;;;;23.98;14.25;;;8.60;99.90;;;;;;5051688;28;20242;-62
2022/01/17 02:51:29;;;;;;;12.30;5.53;;;8.60;99.90;;;;;;5053237;28;20241;-62
2022/01/17 02:53:57;;;;;;;10.77;4.57;;;8.70;99.90;;;;;;5050675;28;20556;-62
2022/01/17 02:56:25;;;;;;;8.90;3.20;;;8.70;99.90;;;;;;5053043;28;20238;-62
2022/01/17 02:58:52;;;;;;;9.23;4.90;;;8.70;99.90;;;;;;5052007;28;20232;-62
2022/01/17 03:01:22;;;;;;;19.15;7.32;;;8.70;99.90;;;;;;5053092;28;20235;-62
2022/01/17 03:03:49;;;;;;;10.15;6.10;;;8.70;99.90;;;;;;5048954;28;20233;-61
2022/01/17 03:06:17;;;;;;;15.77;10.02;;;8.80;99.90;;;;;;5045745;28;20234;-62
2022/01/17 03:08:45;;;;;;;12.00;7.00;;;8.80;99.90;;;;;;5048676;28;20241;-61
2022/01/17 03:11:14;;;;;;;8.68;5.10;;;8.80;99.90;;;;;;5052775;28;20230;-62
2022/01/17 03:13:43;;;;;;;9.75;4.28;;;8.80;99.90;;;;;;5052891;28;20231;-62
2022/01/17 03:16:14;;;;;;;16.98;10.25;;;8.80;99.90;;;;;;5052453;28;21051;-62
2022/01/17 03:18:42;;;;;;;17.67;11.60;;;8.80;99.90;;;;;;5052639;28;20270;-63
2022/01/17 03:21:11;;;;;;;13.10;8.48;;;8.90;99.90;;;;;;5051824;28;20688;-63
2022/01/17 03:23:40;;;;;;;14.48;8.02;;;8.90;99.90;;;;;;5052429;28;20553;-63
2022/01/17 03:26:07;;;;;;;17.77;11.38;;;8.90;99.90;;;;;;5052126;28;20242;-63
2022/01/17 03:28:34;;;;;;;16.13;10.52;;;8.90;99.90;;;;;;5052441;28;20226;-63
2022/01/17 03:31:03;;;;;;;9.10;6.70;;;9.00;99.90;;;;;;5052045;28;20239;-62
2022/01/17 03:33:30;;;;;;;8.75;5.00;;;9.00;99.90;;;;;;5052607;28;20568;-62
2022/01/17 03:35:57;;;;;;;30.02;14.57;;;8.90;99.90;;;;;;5051854;28;20221;-62
2022/01/17 03:38:26;;;;;;;9.30;4.50;;;9.00;99.90;;;;;;5052515;28;20234;-62
2022/01/17 03:40:54;;;;;;;22.67;12.02;;;8.90;99.90;;;;;;5051907;28;20220;-62
2022/01/17 03:43:22;;;;;;;10.05;4.97;;;8.90;99.90;;;;;;5058774;28;20233;-62
2022/01/17 03:45:50;;;;;;;14.07;6.28;;;9.00;99.90;;;;;;5054550;28;20583;-62
2022/01/17 03:48:20;;;;;;;16.10;12.40;;;8.90;99.90;;;;;;5052580;28;20289;-62
2022/01/17 03:50:48;;;;;;;23.63;14.27;;;9.00;99.90;;;;;;5052245;28;20227;-62
2022/01/17 03:53:14;;;;;;;12.02;5.60;;;9.00;99.90;;;;;;5043860;28;20245;-62
2022/01/17 03:55:42;;;;;;;10.95;5.22;;;8.90;99.90;;;;;;5052437;28;20229;-62
2022/01/17 03:58:09;;;;;;;22.98;9.80;;;8.90;99.90;;;;;;5051717;28;20223;-62
2022/01/17 04:00:38;;;;;;;12.40;5.72;;;8.90;99.90;;;;;;5052171;28;20742;-62
2022/01/17 04:03:05;;;;;;;15.85;8.65;;;8.80;99.90;;;;;;5052199;28;20236;-62
2022/01/17 04:05:33;;;;;;;13.32;7.18;;;8.90;99.90;;;;;;5040501;28;20777;-63
2022/01/17 04:08:00;;;;;;;21.45;12.52;;;8.80;99.90;;;;;;5051824;28;20230;-63
2022/01/17 04:10:27;;;;;;;18.15;9.40;;;8.80;99.90;;;;;;5043341;28;20245;-63
2022/01/17 04:13:00;;;;;;;15.32;7.50;;;8.80;99.90;;;;;;5055974;28;20699;-63
2022/01/17 04:15:27;;;;;;;25.83;17.20;;;8.90;99.90;;;;;;5044041;28;20249;-63
2022/01/17 04:20:41;;;;;;;15.32;8.10;;;8.90;99.90;;;;;;5055933;28;20241;-63
2022/01/17 04:23:10;;;;;;;17.58;7.60;;;8.90;99.90;;;;;;5055552;28;20236;-63
2022/01/17 04:25:39;;;;;;;21.63;12.32;;;8.90;99.90;;;;;;5056057;28;20581;-62
2022/01/17 04:28:08;;;;;;;28.00;16.85;;;8.90;99.90;;;;;;5055610;28;20227;-63
2022/01/17 04:30:35;;;;;;;11.85;6.18;;;8.90;99.90;;;;;;5055751;28;20226;-63
2022/01/17 04:33:02;;;;;;;25.55;12.90;;;9.00;99.90;;;;;;5055373;28;20227;-62
2022/01/17 04:35:30;;;;;;;16.13;6.22;;;9.00;99.90;;;;;;5055882;28;20230;-63
2022/01/17 04:38:00;;;;;;;12.45;6.47;;;8.90;99.90;;;;;;5048528;28;20242;-62
2022/01/17 04:40:33;;;;;;;27.55;16.13;;;8.90;99.90;;;;;;5055631;28;20280;-63
2022/01/17 04:43:02;;;;;;;30.00;19.85;;;8.90;99.90;;;;;;5042983;28;20283;-63
2022/01/17 04:45:29;;;;;;;20.13;11.43;;;8.90;99.90;;;;;;5055650;28;20235;-62
2022/01/17 04:47:56;;;;;;;17.23;8.32;;;8.90;99.90;;;;;;5055251;28;20227;-62
2022/01/17 04:50:25;;;;;;;5.47;2.85;;;9.00;99.90;;;;;;5053089;28;20238;-62
2022/01/17 04:52:54;;;;;;;19.58;13.00;;;8.90;99.90;;;;;;5055440;28;20227;-62
2022/01/17 04:55:23;;;;;;;16.33;9.68;;;8.90;99.90;;;;;;5035217;28;21218;-62
2022/01/17 04:57:50;;;;;;;20.50;11.40;;;8.80;99.90;;;;;;5035522;28;20228;-62
2022/01/17 05:00:19;;;;;;;13.77;7.90;;;8.80;99.90;;;;;;5034775;28;20239;-63
2022/01/17 05:02:46;;;;;;;14.93;4.05;;;8.80;99.90;;;;;;5035385;28;20234;-63
2022/01/17 05:05:14;;;;;;;9.65;3.65;;;8.80;99.90;;;;;;5023419;28;20575;-61
2022/01/17 05:07:41;;;;;;;6.20;2.30;;;8.80;99.90;;;;;;5035275;28;20250;-62
2022/01/17 05:10:10;;;;;;;5.80;1.73;;;8.70;99.90;;;;;;5022607;28;20232;-63
2022/01/17 05:12:39;;;;;;;18.48;8.07;;;8.60;99.90;;;;;;5035341;28;20233;-62
2022/01/17 05:15:16;;;;;;;3.83;2.13;;;8.70;99.90;;;;;;5034692;28;20232;-62
2022/01/17 05:17:57;;;;;;;6.45;2.30;;;8.70;99.90;;;;;;5034843;28;20231;-62
2022/01/17 05:20:24;;;;;;;6.75;2.15;;;8.70;99.90;;;;;;5033629;28;20991;-64
2022/01/17 05:22:51;;;;;;;9.02;2.97;;;8.70;99.90;;;;;;5034902;28;20226;-63
2022/01/17 05:25:18;;;;;;;9.15;3.22;;;8.70;99.90;;;;;;5034605;28;20236;-63
2022/01/17 05:27:46;;;;;;;5.40;3.05;;;8.70;99.90;;;;;;5034885;28;20234;-63
2022/01/17 05:30:16;;;;;;;9.85;3.10;;;8.70;99.90;;;;;;5034555;28;20276;-63
2022/01/17 05:32:44;;;;;;;8.45;3.30;;;8.70;99.90;;;;;;5034740;28;20228;-63
2022/01/17 05:35:12;;;;;;;9.45;2.80;;;8.70;99.90;;;;;;5034512;28;20235;-64
2022/01/17 05:37:39;;;;;;;5.97;2.13;;;8.70;99.90;;;;;;5034460;28;20232;-64
2022/01/17 05:40:09;;;;;;;6.35;3.80;;;8.60;99.90;;;;;;5034226;28;20227;-64
2022/01/17 05:42:36;;;;;;;9.82;2.90;;;8.60;99.90;;;;;;5034353;28;20232;-64
2022/01/17 05:45:05;;;;;;;11.20;5.55;;;8.60;99.90;;;;;;5034425;28;20816;-63
2022/01/17 05:47:32;;;;;;;8.60;2.72;;;8.50;99.90;;;;;;5034466;28;20694;-63
2022/01/17 05:50:02;;;;;;;7.47;3.13;;;8.60;99.90;;;;;;5040943;28;20241;-63
2022/01/17 05:52:30;;;;;;;5.10;2.60;;;8.60;99.90;;;;;;5032666;28;21010;-64
2022/01/17 05:54:57;;;;;;;9.70;3.35;;;8.60;99.90;;;;;;5054360;28;20227;-64
2022/01/17 05:57:24;;;;;;;6.78;2.58;;;8.70;99.90;;;;;;5053454;28;20233;-63
2022/01/17 05:59:51;;;;;;;10.13;2.95;;;8.70;99.90;;;;;;5053934;28;20673;-62
2022/01/17 06:02:19;;;;;;;10.15;3.97;;;8.70;99.90;;;;;;5053565;28;20224;-63
2022/01/17 06:04:46;;;;;;;4.78;2.33;;;8.70;99.90;;;;;;5043660;28;20258;-63
2022/01/17 06:07:13;;;;;;;12.20;2.95;;;8.70;99.90;;;;;;5053436;28;20215;-62
2022/01/17 06:09:40;;;;;;;10.32;4.78;;;8.70;99.90;;;;;;5042682;28;20243;-63
2022/01/17 06:12:08;;;;;;;9.65;3.65;;;8.70;99.90;;;;;;5053656;28;20229;-62
2022/01/17 06:14:35;;;;;;;7.53;3.15;;;8.70;99.90;;;;;;5053954;28;20222;-63
2022/01/17 06:17:02;;;;;;;5.55;3.13;;;8.70;99.90;;;;;;5048569;28;20574;-63
2022/01/17 06:19:30;;;;;;;5.35;3.08;;;8.60;99.90;;;;;;5049061;28;20229;-63
2022/01/17 06:21:57;;;;;;;9.88;2.58;;;8.70;99.90;;;;;;5053793;28;20226;-63
2022/01/17 06:24:24;;;;;;;3.95;2.90;;;8.70;99.90;;;;;;5053169;28;20696;-63
2022/01/17 06:26:52;;;;;;;9.18;4.03;;;8.60;99.90;;;;;;5051305;28;20223;-63
2022/01/17 06:29:19;;;;;;;7.97;3.25;;;8.70;99.90;;;;;;5049735;28;20222;-63
2022/01/17 06:31:46;;;;;;;9.35;3.80;;;8.70;99.90;;;;;;5053347;28;20238;-62
2022/01/17 06:34:13;;;;;;;14.25;3.75;;;8.70;99.90;;;;;;5053130;28;20701;-62
2022/01/17 06:36:42;;;;;;;6.35;2.33;;;8.60;99.90;;;;;;5053602;28;20222;-63
2022/01/17 06:39:10;;;;;;;9.73;3.80;;;8.70;99.90;;;;;;5052945;28;20250;-62
2022/01/17 06:41:37;;;;;;;5.80;2.33;;;8.60;99.90;;;;;;5053303;28;20218;-63
2022/01/17 06:44:06;;;;;;;7.05;3.13;;;8.70;99.90;;;;;;5060598;28;20218;-63
2022/01/17 06:46:33;;;;;;;9.57;3.95;;;8.70;99.90;;;;;;5053013;28;20992;-63
2022/01/17 06:49:00;;;;;;;11.20;4.07;;;8.60;99.90;;;;;;5053273;28;20222;-63
2022/01/17 06:51:27;;;;;;;8.90;3.47;;;8.60;99.90;;;;;;5052938;28;20706;-64
2022/01/17 06:53:55;;;;;;;7.85;1.83;;;8.60;99.90;;;;;;5052930;28;20225;-62
2022/01/17 06:56:22;;;;;;;5.97;2.72;;;8.60;99.90;;;;;;5052891;28;20258;-62
2022/01/17 06:58:49;;;;;;;5.22;3.00;;;8.50;99.90;;;;;;5052788;28;20241;-67
2022/01/17 07:01:16;;;;;;;6.18;2.30;;;8.50;99.90;;;;;;5052353;28;20222;-61
2022/01/17 07:03:43;;;;;;;3.35;1.83;;;8.50;99.90;;;;;;5050062;28;20227;-62
2022/01/17 07:06:10;;;;;;;8.57;2.60;;;8.50;99.90;;;;;;5045804;28;20223;-62
2022/01/17 07:08:37;;;;;;;5.15;2.92;;;8.50;99.90;;;;;;5048798;28;20234;-62
2022/01/17 07:11:05;;;;;;;9.88;4.07;;;8.60;99.90;;;;;;5046411;28;20223;-62
2022/01/17 07:13:32;;;;;;;14.95;6.28;;;8.50;99.90;;;;;;5051281;28;20239;-62
2022/01/17 07:15:59;;;;;;;5.97;3.08;;;8.50;99.90;;;;;;5050036;28;20223;-62
2022/01/17 07:18:26;;;;;;;8.85;4.32;;;8.50;99.90;;;;;;5039393;28;20464;-63
2022/01/17 07:20:53;;;;;;;5.18;2.50;;;8.40;99.90;;;;;;5050370;28;20673;-63
2022/01/17 07:23:20;;;;;;;27.95;17.42;;;8.40;99.90;;;;;;5050898;28;20217;-63
2022/01/17 07:25:47;;;;;;;8.07;3.13;;;8.40;99.90;;;;;;5052702;28;20222;-63
2022/01/17 07:28:15;;;;;;;7.72;2.67;;;8.40;99.90;;;;;;5045832;28;20234;-63
2022/01/17 07:30:42;;;;;;;4.75;3.05;;;8.40;99.90;;;;;;5052571;28;20253;-62
2022/01/17 07:33:09;;;;;;;6.55;3.42;;;8.40;99.90;;;;;;5052740;28;20553;-63
2022/01/17 07:35:37;;;;;;;6.53;3.90;;;8.40;99.90;;;;;;5051383;28;20553;-63
2022/01/17 07:38:04;;;;;;;8.40;4.05;;;8.40;99.90;;;;;;5051766;28;20737;-62
2022/01/17 07:40:32;;;;;;;11.30;4.55;;;8.30;99.90;;;;;;5051259;28;20231;-63
2022/01/17 07:42:59;;;;;;;5.93;2.63;;;8.30;99.90;;;;;;5054455;28;20240;-63
2022/01/17 07:45:30;;;;;;;8.93;3.00;;;8.40;99.90;;;;;;5047773;28;20242;-63
2022/01/17 07:48:10;;;;;;;10.75;3.20;;;8.30;99.90;;;;;;5051786;28;20229;-63
2022/01/17 07:50:37;;;;;;;4.88;2.10;;;8.40;99.90;;;;;;5051119;28;20234;-63
2022/01/17 07:53:04;;;;;;;3.78;2.53;;;8.40;99.90;;;;;;5051990;28;20223;-63
2022/01/17 07:55:31;;;;;;;5.13;3.38;;;8.30;99.90;;;;;;5051922;28;20229;-63
2022/01/17 07:57:58;;;;;;;17.42;4.68;;;8.40;99.90;;;;;;5052245;28;20244;-63
2022/01/17 08:00:25;;;;;;;3.45;2.72;;;8.50;99.90;;;;;;5051791;28;20243;-62
2022/01/17 08:02:56;;;;;;;6.53;2.92;;;8.50;99.90;;;;;;5052454;28;20219;-62
2022/01/17 08:05:24;;;;;;;9.52;3.63;;;8.50;99.90;;;;;;5051472;28;20227;-62
2022/01/17 08:07:51;;;;;;;5.47;2.40;;;8.40;99.90;;;;;;5051688;28;20288;-63
2022/01/17 08:10:18;;;;;;;6.30;3.17;;;8.50;99.90;;;;;;5051371;28;20744;-62
2022/01/17 08:12:47;;;;;;;6.78;3.95;;;8.50;99.90;;;;;;5052181;28;20223;-62
2022/01/17 08:15:14;;;;;;;5.97;2.33;;;8.40;99.90;;;;;;5052284;28;20534;-64
2022/01/17 08:17:41;;;;;;;5.38;2.42;;;8.40;99.90;;;;;;5052051;28;20219;-62
2022/01/17 08:20:10;;;;;;;8.93;3.15;;;8.40;99.90;;;;;;5052085;28;20234;-63
2022/01/17 08:22:37;;;;;;;6.80;2.88;;;8.40;99.90;;;;;;5051768;28;20234;-61
2022/01/17 08:25:05;;;;;;;6.13;3.25;;;8.40;99.90;;;;;;5052324;28;20218;-63
2022/01/17 08:27:32;;;;;;;14.25;4.70;;;8.50;99.90;;;;;;5051852;28;20230;-62
2022/01/17 08:30:00;;;;;;;4.80;3.75;;;8.50;99.90;;;;;;5052179;28;20231;-62
2022/01/17 08:32:28;;;;;;;7.03;3.72;;;8.40;99.90;;;;;;5051655;28;20301;-64
2022/01/17 08:34:56;;;;;;;8.38;3.47;;;8.40;99.90;;;;;;5052190;28;20241;-62
2022/01/17 08:37:25;;;;;;;8.63;5.00;;;8.40;99.90;;;;;;5051668;28;20684;-61
2022/01/17 08:39:52;;;;;;;9.75;4.63;;;8.50;99.90;;;;;;5051938;28;20237;-62
2022/01/17 08:42:20;;;;;;;8.27;3.65;;;8.40;99.90;;;;;;5051651;28;20217;-63
2022/01/17 08:44:49;;;;;;;6.25;3.00;;;8.40;99.90;;;;;;5052099;28;20233;-63
2022/01/17 08:47:16;;;;;;;11.05;6.75;;;8.50;99.90;;;;;;5052109;28;20699;-62
2022/01/17 08:49:43;;;;;;;5.50;2.70;;;8.50;99.90;;;;;;5051532;28;20276;-62
2022/01/17 08:52:11;;;;;;;7.45;3.47;;;8.50;99.90;;;;;;5052023;28;20580;-63
2022/01/17 08:54:39;;;;;;;4.00;1.75;;;8.50;99.90;;;;;;5051620;28;20559;-62
2022/01/17 08:57:06;;;;;;;6.63;3.75;;;8.40;99.90;;;;;;5054989;28;20227;-63
2022/01/17 08:59:32;;;;;;;6.85;4.65;;;8.40;99.90;;;;;;5054986;28;20242;-63
2022/01/17 09:02:00;;;;;;;5.43;2.85;;;8.40;99.90;;;;;;5055768;28;20284;-62
2022/01/17 09:04:26;;;;;;;4.32;2.67;;;8.40;99.90;;;;;;5055046;28;20239;-62
2022/01/17 09:06:55;;;;;;;5.90;3.20;;;8.40;99.90;;;;;;5055340;28;20222;-62
2022/01/17 09:09:22;;;;;;;5.85;4.10;;;8.40;99.90;;;;;;5055101;28;20576;-62
2022/01/17 09:11:50;;;;;;;6.55;3.58;;;8.50;99.90;;;;;;5055032;28;20238;-62
2022/01/17 09:14:17;;;;;;;4.57;2.72;;;8.60;99.90;;;;;;5055390;28;20219;-63
2022/01/17 09:16:44;;;;;;;3.03;2.72;;;8.50;99.90;;;;;;5054767;28;20251;-62
2022/01/17 09:19:12;;;;;;;6.90;4.80;;;8.60;99.90;;;;;;5054718;28;20720;-63
2022/01/17 09:21:39;;;;;;;3.33;2.38;;;8.50;99.90;;;;;;5054666;28;20234;-62
2022/01/17 09:24:07;;;;;;;10.40;4.20;;;8.50;99.90;;;;;;5055091;28;20222;-63
2022/01/17 09:26:34;;;;;;;6.00;4.60;;;8.50;99.90;;;;;;5054549;28;20685;-63
2022/01/17 09:29:02;;;;;;;3.95;2.90;;;8.50;99.90;;;;;;5055052;28;20229;-63
2022/01/17 09:31:29;;;;;;;4.95;4.03;;;8.60;99.90;;;;;;5054377;28;20231;-63
2022/01/17 09:33:56;;;;;;;6.72;3.47;;;8.70;99.90;;;;;;5054973;28;20217;-63
2022/01/17 09:36:25;;;;;;;10.23;3.30;;;8.70;99.90;;;;;;5054477;28;20233;-62
2022/01/17 09:38:52;;;;;;;11.27;4.70;;;8.70;99.90;;;;;;5054808;28;20309;-62
2022/01/17 09:41:19;;;;;;;5.15;3.55;;;8.70;99.90;;;;;;5054599;28;20234;-63
2022/01/17 09:43:46;;;;;;;8.32;3.53;;;8.70;99.90;;;;;;5054309;28;20673;-62
2022/01/17 09:46:15;;;;;;;4.70;3.75;;;8.70;99.90;;;;;;5054678;28;20238;-63
2022/01/17 09:48:47;;;;;;;4.78;2.97;;;8.70;99.90;;;;;;5054220;28;20245;-63
2022/01/17 09:51:20;;;;;;;5.63;2.45;;;8.70;99.90;;;;;;5054620;28;20233;-62
2022/01/17 09:53:51;;;;;;;3.33;1.90;;;8.70;99.90;;;;;;5054109;28;20246;-63
2022/01/17 09:56:21;;;;;;;5.93;2.72;;;8.70;99.90;;;;;;5054411;28;20241;-62
2022/01/17 09:58:48;;;;;;;2.90;1.75;;;8.70;99.90;;;;;;5053882;28;20231;-62
2022/01/17 10:01:16;;;;;;;8.02;4.93;;;8.60;99.90;;;;;;5054232;28;20227;-62
2022/01/17 10:03:43;;;;;;;5.88;2.90;;;8.60;99.90;;;;;;5053813;28;20416;-62
2022/01/17 10:06:10;;;;;;;3.90;1.90;;;8.50;99.90;;;;;;5053958;28;20226;-62
2022/01/17 10:08:36;;;;;;;5.82;1.70;;;8.40;99.90;;;;;;5053909;28;20304;-62
2022/01/17 10:11:05;;;;;;;3.47;2.58;;;8.40;99.90;;;;;;5053984;28;20230;-62
2022/01/17 10:13:34;;;;;;;4.07;2.45;;;8.40;99.90;;;;;;5053763;28;20227;-63
2022/01/17 10:16:06;;;;;;;7.15;2.40;;;8.40;99.90;;;;;;5054053;28;20225;-63
2022/01/17 10:18:38;;;;;;;2.60;2.00;;;8.40;99.90;;;;;;5053543;28;20227;-62
2022/01/17 10:21:10;;;;;;;2.65;1.67;;;8.50;99.90;;;;;;5053708;28;20295;-63
2022/01/17 10:26:51;;;;;;;5.15;1.90;;;8.60;99.90;;;;;;5049968;28;20227;-62
2022/01/17 10:35:16;;;;;;;4.35;1.70;;;8.60;99.90;;;;;;5040834;28;20217;-63
2022/01/17 10:37:59;;;;;;;4.13;1.73;;;8.70;99.90;;;;;;5033885;28;20230;-62
2022/01/17 10:40:27;;;;;;;8.85;2.30;;;8.70;99.90;;;;;;5033984;28;20247;-62
2022/01/17 10:42:55;;;;;;;5.22;1.30;;;8.70;99.90;;;;;;5033485;28;20759;-62
2022/01/17 10:45:24;;;;;;;4.45;1.92;;;8.70;99.90;;;;;;5048997;28;20237;-62
2022/01/17 10:47:54;;;;;;;4.18;1.70;;;8.70;99.90;;;;;;5052799;28;20230;-62
2022/01/17 10:50:25;;;;;;;6.65;2.92;;;8.70;99.90;;;;;;5053381;28;20235;-62
2022/01/17 10:52:54;;;;;;;6.90;3.22;;;8.80;99.90;;;;;;5052893;28;20226;-61
2022/01/17 10:55:24;;;;;;;6.05;3.60;;;8.80;99.90;;;;;;5053372;28;20237;-61
2022/01/17 10:57:53;;;;;;;8.90;2.03;;;8.90;99.90;;;;;;5053040;28;20231;-61
2022/01/17 11:00:23;;;;;;;9.20;1.90;;;8.90;99.90;;;;;;5053012;28;20234;-61
2022/01/17 11:02:52;;;;;;;9.23;2.95;;;9.00;99.90;;;;;;5052575;28;20838;-61
2022/01/17 11:05:22;;;;;;;7.45;3.00;;;9.00;99.90;;;;;;5053323;28;20218;-62
2022/01/17 11:07:52;;;;;;;4.55;2.60;;;9.00;99.90;;;;;;5052544;28;20237;-62
2022/01/17 11:10:23;;;;;;;8.00;2.58;;;9.10;99.90;;;;;;5052947;28;20238;-62
2022/01/17 11:12:51;;;;;;;2.72;1.60;;;9.10;99.90;;;;;;5052785;28;20700;-62
2022/01/17 11:15:19;;;;;;;1.55;1.10;;;9.00;99.90;;;;;;5053083;28;20223;-62
2022/01/17 11:17:52;;;;;;;3.22;1.65;;;8.90;99.90;;;;;;5051920;28;20223;-63
2022/01/17 11:20:21;;;;;;;4.63;1.80;;;8.70;99.90;;;;;;5052397;28;20238;-62
2022/01/17 11:22:51;;;;;;;3.55;1.88;;;8.60;99.90;;;;;;5052496;28;20227;-62
2022/01/17 11:25:21;;;;;;;6.35;1.98;;;8.40;99.90;;;;;;5052787;28;20222;-63
2022/01/17 11:27:48;;;;;;;4.68;2.50;;;8.20;99.90;;;;;;5052417;28;20236;-60
2022/01/17 11:30:16;;;;;;;5.55;2.35;;;8.00;99.90;;;;;;5052844;28;20562;-63
2022/01/17 11:32:44;;;;;;;11.13;2.70;;;7.90;99.90;;;;;;5052404;28;20230;-61
2022/01/17 11:35:13;;;;;;;4.45;1.40;;;7.80;99.90;;;;;;5052678;28;20218;-63
2022/01/17 11:37:43;;;;;;;4.65;2.13;;;7.60;99.90;;;;;;5052272;28;20587;-63
2022/01/17 11:40:13;;;;;;;7.07;3.13;;;7.50;99.90;;;;;;5052492;28;20222;-62
2022/01/17 11:42:42;;;;;;;3.50;2.20;;;7.50;99.90;;;;;;5052197;28;20700;-62
2022/01/17 11:45:32;;;;;;;5.63;2.30;;;7.40;99.90;;;;;;5052674;28;20224;-62
2022/01/17 11:48:00;;;;;;;5.43;2.17;;;7.20;99.90;;;;;;5052337;28;20217;-62
2022/01/17 11:50:44;;;;;;;6.65;2.20;;;7.20;99.90;;;;;;5052559;28;20231;-62
2022/01/17 11:53:50;;;;;;;4.53;2.08;;;7.00;99.90;;;;;;5040726;28;20264;-62
2022/01/17 11:56:41;;;;;;;6.38;3.10;;;7.00;99.90;;;;;;5052398;28;20217;-62
2022/01/17 11:59:26;;;;;;;9.60;2.60;;;7.00;99.90;;;;;;5052035;28;20309;-62
2022/01/17 12:02:15;;;;;;;5.80;3.22;;;6.90;99.90;;;;;;5051335;28;20221;-62
2022/01/17 12:04:42;;;;;;;7.15;2.72;;;7.00;99.90;;;;;;5043815;28;20228;-62
2022/01/17 12:07:09;;;;;;;5.28;2.67;;;6.90;99.90;;;;;;5068079;28;20672;-62
2022/01/17 12:09:44;;;;;;;9.65;2.78;;;6.90;99.90;;;;;;5054603;28;20225;-63
2022/01/17 12:12:17;;;;;;;9.40;5.18;;;7.00;99.90;;;;;;5052035;28;20219;-63
2022/01/17 12:14:53;;;;;;;9.82;2.92;;;7.00;99.90;;;;;;5051217;28;20305;-63
2022/01/17 12:17:28;;;;;;;3.30;1.92;;;7.00;99.90;;;;;;5038325;28;21167;-63
2022/01/17 12:20:19;;;;;;;6.80;2.25;;;7.00;99.90;;;;;;5050547;28;20242;-63
2022/01/17 12:22:52;;;;;;;5.75;2.67;;;7.00;99.90;;;;;;5027251;28;20222;-63
2022/01/17 12:25:34;;;;;;;2.25;1.90;;;7.10;99.90;;;;;;5051305;28;20248;-63
2022/01/17 12:28:24;;;;;;;4.05;2.85;;;7.10;99.90;;;;;;5051820;28;20233;-62
2022/01/17 12:30:54;;;;;;;7.65;2.40;;;7.20;99.90;;;;;;5054775;28;20240;-62
2022/01/17 12:33:37;;;;;;;4.80;2.15;;;7.20;99.90;;;;;;5056150;28;20227;-62
2022/01/17 12:36:07;;;;;;;10.13;2.40;;;7.30;99.90;;;;;;5044137;28;20659;-63
2022/01/17 12:38:39;;;;;;;9.18;2.60;;;7.30;99.70;;;;;;5035926;28;20222;-63
2022/01/17 12:41:06;;;;;;;4.65;2.00;;;7.30;99.20;;;;;;5055471;28;20236;-62
2022/01/17 12:43:36;;;;;;;6.13;2.47;;;7.40;99.00;;;;;;5055812;28;20234;-62
2022/01/17 12:46:05;;;;;;;8.20;2.92;;;7.40;98.90;;;;;;5055472;28;20222;-63
2022/01/17 12:48:34;;;;;;;5.55;2.60;;;7.40;98.60;;;;;;5055742;28;20278;-63
2022/01/17 12:51:05;;;;;;;6.47;2.22;;;7.40;98.70;;;;;;5055205;28;20667;-63
2022/01/17 12:53:32;;;;;;;5.32;2.17;;;7.50;98.50;;;;;;5055651;28;20311;-62
2022/01/17 12:56:01;;;;;;;4.22;1.77;;;7.50;98.50;;;;;;5055170;28;20237;-61
2022/01/17 12:58:30;;;;;;;3.45;1.92;;;7.60;98.10;;;;;;5055550;28;20230;-61
2022/01/17 13:01:01;;;;;;;5.88;2.85;;;7.60;97.60;;;;;;5055016;28;20672;-61
2022/01/17 13:03:33;;;;;;;2.95;2.13;;;7.60;97.50;;;;;;5055413;28;20249;-61
2022/01/17 13:06:01;;;;;;;4.80;2.90;;;7.70;97.50;;;;;;5055054;28;20230;-61
2022/01/17 13:08:28;;;;;;;6.13;2.28;;;7.70;97.20;;;;;;5055299;28;20232;-62
2022/01/17 13:10:55;;;;;;;3.63;2.28;;;7.70;96.90;;;;;;5054852;28;20241;-61
2022/01/17 13:13:22;;;;;;;4.53;2.15;;;7.70;96.60;;;;;;5055214;28;20227;-61
2022/01/17 13:15:54;;;;;;;8.20;3.63;;;7.70;96.50;;;;;;5054883;28;20233;-61
2022/01/17 13:18:23;;;;;;;5.75;3.00;;;7.70;96.70;;;;;;5055207;28;20233;-61
2022/01/17 13:20:50;;;;;;;7.30;3.15;;;7.70;96.60;;;;;;5054245;28;20233;-61
2022/01/17 13:23:25;;;;;;;5.00;2.50;;;7.70;96.70;;;;;;5054946;28;20234;-62